Time;durP1;ratioP1;P1;durP2;ratioP2;P2;SDS_P1;SDS_P2;PMS_P1;PMS_P2;Temp;Humidity;BMP_temperature;BMP_pressure;BME280_temperature;BME280_humidity;BME280_pressure;Samples;Min_cycle;Max_cycle;Signal;HPM_P1;HPM_P2
2022/01/13 00:02:04;;;;;;;10.25;4.90;;;;;;;;;;5044091;28;20039;-77
2022/01/13 00:04:30;;;;;;;13.15;5.15;;;;;;;;;;5040259;28;20548;-77
2022/01/13 00:06:56;;;;;;;13.02;5.15;;;;;;;;;;5048712;28;20036;-77
2022/01/13 00:09:22;;;;;;;12.07;4.90;;;;;;;;;;5044497;28;20075;-78
2022/01/13 00:11:49;;;;;;;11.30;5.30;;;;;;;;;;5048343;28;20031;-77
2022/01/13 00:19:46;;;;;;;14.32;6.68;;;;;;;;;;5047905;28;20047;-77
2022/01/13 00:24:44;;;;;;;14.93;5.05;;;;;;;;;;5045362;28;20071;-77
2022/01/13 00:27:12;;;;;;;10.57;4.75;;;;;;;;;;5062221;28;20045;-77
2022/01/13 00:29:42;;;;;;;12.60;5.15;;;;;;;;;;5046334;28;20245;-77
2022/01/13 00:32:09;;;;;;;13.18;5.30;;;;;;;;;;5048956;28;20054;-77
2022/01/13 00:34:35;;;;;;;9.85;5.25;;;;;;;;;;5041179;28;20028;-76
2022/01/13 00:37:01;;;;;;;8.38;4.35;;;;;;;;;;5046288;28;20024;-77
2022/01/13 00:39:27;;;;;;;9.63;5.00;;;;;;;;;;5049437;28;20569;-77
2022/01/13 00:41:53;;;;;;;11.35;5.00;;;;;;;;;;5056943;28;20028;-76
2022/01/13 00:44:21;;;;;;;9.25;4.18;;;;;;;;;;5049549;28;20104;-77
2022/01/13 00:46:50;;;;;;;9.10;4.82;;;;;;;;;;5045607;28;20576;-78
2022/01/13 00:49:16;;;;;;;9.07;4.90;;;;;;;;;;5050706;28;20084;-78
2022/01/13 00:51:42;;;;;;;18.30;4.45;;;;;;;;;;5051937;28;20025;-78
2022/01/13 00:54:09;;;;;;;10.90;5.05;;;;;;;;;;5045886;28;20056;-79
2022/01/13 00:56:36;;;;;;;9.02;4.72;;;;;;;;;;5047035;28;20021;-79
2022/01/13 00:59:07;;;;;;;7.68;3.28;;;;;;;;;;5047266;28;20037;-76
2022/01/13 01:01:33;;;;;;;12.35;4.38;;;;;;;;;;5051434;28;20103;-79
2022/01/13 01:03:59;;;;;;;9.73;5.10;;;;;;;;;;5043035;28;21122;-79
2022/01/13 01:06:25;;;;;;;19.02;5.97;;;;;;;;;;5045239;28;20915;-78
2022/01/13 01:08:50;;;;;;;15.98;5.82;;;;;;;;;;5040260;28;20178;-78
2022/01/13 01:11:17;;;;;;;8.25;4.28;;;;;;;;;;5046690;28;20021;-78
2022/01/13 01:13:45;;;;;;;5.38;3.55;;;;;;;;;;5049125;28;20020;-78
2022/01/13 01:16:12;;;;;;;8.07;4.10;;;;;;;;;;5042395;28;20041;-78
2022/01/13 01:26:26;;;;;;;15.32;7.40;;;;;;;;;;5037803;28;20081;-77
2022/01/13 01:29:11;;;;;;;15.80;6.78;;;;;;;;;;5031792;28;20036;-76
2022/01/13 01:31:39;;;;;;;10.70;5.32;;;;;;;;;;5041725;28;20039;-76
2022/01/13 01:36:32;;;;;;;9.13;5.35;;;;;;;;;;5042257;28;20052;-76
2022/01/13 01:38:59;;;;;;;7.93;4.20;;;;;;;;;;5039311;28;20105;-76
2022/01/13 01:41:26;;;;;;;11.07;5.28;;;;;;;;;;5040968;28;20058;-78
2022/01/13 01:43:54;;;;;;;4.78;3.00;;;;;;;;;;5041217;28;20028;-78
2022/01/13 01:46:20;;;;;;;8.40;4.80;;;;;;;;;;5043117;28;20098;-78
2022/01/13 01:48:46;;;;;;;7.40;3.97;;;;;;;;;;5046658;28;20099;-78
2022/01/13 01:51:12;;;;;;;7.97;4.55;;;;;;;;;;5049758;28;20112;-79
2022/01/13 01:53:38;;;;;;;11.35;6.22;;;;;;;;;;5043412;28;20500;-78
2022/01/13 01:56:04;;;;;;;9.13;4.18;;;;;;;;;;5041992;28;20035;-79
2022/01/13 01:58:30;;;;;;;10.73;5.20;;;;;;;;;;5042754;28;20071;-78
2022/01/13 02:00:56;;;;;;;10.98;5.65;;;;;;;;;;5044578;28;20052;-78
2022/01/13 02:03:26;;;;;;;16.48;6.13;;;;;;;;;;5040981;28;20484;-77
2022/01/13 02:05:53;;;;;;;12.65;5.32;;;;;;;;;;5048783;28;20037;-77
2022/01/13 02:08:19;;;;;;;9.10;5.22;;;;;;;;;;5043236;28;20029;-79
2022/01/13 02:10:45;;;;;;;11.35;6.15;;;;;;;;;;5042036;28;20083;-78
2022/01/13 02:13:13;;;;;;;12.18;5.50;;;;;;;;;;5043620;28;21009;-78
2022/01/13 02:16:00;;;;;;;8.43;4.70;;;;;;;;;;5037851;28;20040;-78
2022/01/13 02:18:29;;;;;;;8.93;3.72;;;;;;;;;;5044814;28;20037;-78
2022/01/13 02:20:55;;;;;;;9.43;4.45;;;;;;;;;;5043231;28;20108;-78
2022/01/13 02:23:37;;;;;;;10.50;4.55;;;;;;;;;;5043644;28;20033;-78
2022/01/13 02:26:04;;;;;;;11.20;5.50;;;;;;;;;;5044694;28;20126;-78
2022/01/13 02:28:30;;;;;;;13.82;5.85;;;;;;;;;;5040769;28;20029;-78
2022/01/13 02:30:56;;;;;;;11.02;4.93;;;;;;;;;;5036570;28;20039;-78
2022/01/13 02:33:22;;;;;;;10.40;4.65;;;;;;;;;;5041793;28;20071;-78
2022/01/13 02:35:48;;;;;;;11.63;5.32;;;;;;;;;;5042831;28;20052;-78
2022/01/13 02:38:14;;;;;;;9.45;4.32;;;;;;;;;;5039938;28;20485;-78
2022/01/13 02:40:41;;;;;;;7.25;4.57;;;;;;;;;;5043038;28;20032;-79
2022/01/13 02:43:07;;;;;;;9.90;3.67;;;;;;;;;;5043734;28;20033;-78
2022/01/13 02:45:37;;;;;;;10.13;4.05;;;;;;;;;;5040875;28;20047;-77
2022/01/13 02:50:29;;;;;;;12.00;4.63;;;;;;;;;;5041613;28;20045;-77
2022/01/13 02:52:55;;;;;;;6.80;4.53;;;;;;;;;;5043092;28;20025;-77
2022/01/13 02:55:23;;;;;;;12.65;5.18;;;;;;;;;;5038719;28;21092;-77
2022/01/13 02:57:49;;;;;;;10.27;4.05;;;;;;;;;;5043401;28;20125;-77
2022/01/13 03:00:16;;;;;;;22.30;6.53;;;;;;;;;;5041735;28;20041;-78
2022/01/13 03:02:46;;;;;;;10.95;4.18;;;;;;;;;;5047844;28;20032;-77
2022/01/13 03:05:13;;;;;;;12.55;5.28;;;;;;;;;;5044892;28;20552;-78
2022/01/13 03:07:39;;;;;;;14.43;4.80;;;;;;;;;;5049913;28;20040;-78
2022/01/13 03:10:06;;;;;;;11.32;5.70;;;;;;;;;;5044390;28;20112;-78
2022/01/13 03:12:36;;;;;;;12.85;4.60;;;;;;;;;;5046011;28;20265;-78
2022/01/13 03:15:02;;;;;;;14.05;5.88;;;;;;;;;;5043578;28;20044;-77
2022/01/13 03:17:28;;;;;;;6.55;3.92;;;;;;;;;;5045742;28;20021;-78
2022/01/13 03:19:54;;;;;;;16.40;6.20;;;;;;;;;;5048873;28;20412;-77
2022/01/13 03:22:19;;;;;;;14.35;4.40;;;;;;;;;;5050840;28;20095;-78
2022/01/13 03:24:46;;;;;;;8.07;4.70;;;;;;;;;;5043928;28;20059;-77
2022/01/13 03:27:19;;;;;;;18.02;7.45;;;;;;;;;;5048672;28;20431;-78
2022/01/13 03:29:45;;;;;;;15.45;5.35;;;;;;;;;;5040985;28;20048;-77
2022/01/13 03:32:11;;;;;;;14.70;6.65;;;;;;;;;;5046913;28;20507;-77
2022/01/13 03:34:37;;;;;;;12.98;5.35;;;;;;;;;;5046557;28;20116;-77
2022/01/13 03:37:03;;;;;;;12.48;5.82;;;;;;;;;;5047939;28;20697;-78
2022/01/13 03:39:29;;;;;;;12.98;6.35;;;;;;;;;;5042602;28;20128;-78
2022/01/13 03:41:55;;;;;;;10.88;5.03;;;;;;;;;;5046611;28;20029;-77
2022/01/13 03:44:27;;;;;;;6.63;5.00;;;;;;;;;;5043740;28;20040;-77
2022/01/13 03:46:54;;;;;;;6.00;3.53;;;;;;;;;;5046030;28;20311;-78
2022/01/13 03:49:20;;;;;;;10.52;4.90;;;;;;;;;;5045435;28;20045;-78
2022/01/13 03:51:59;;;;;;;8.05;4.05;;;;;;;;;;5049521;28;20032;-78
2022/01/13 03:54:31;;;;;;;13.15;6.10;;;;;;;;;;5043726;28;20647;-77
2022/01/13 03:57:06;;;;;;;12.90;4.25;;;;;;;;;;5048371;28;20028;-77
2022/01/13 03:59:53;;;;;;;11.20;4.53;;;;;;;;;;5046021;28;20131;-78
2022/01/13 04:02:19;;;;;;;10.65;4.07;;;;;;;;;;5033060;28;20033;-77
2022/01/13 04:04:47;;;;;;;11.90;4.57;;;;;;;;;;5045833;28;20795;-78
2022/01/13 04:07:14;;;;;;;12.90;5.28;;;;;;;;;;5046739;28;20044;-77
2022/01/13 04:09:40;;;;;;;18.08;5.72;;;;;;;;;;5042983;28;20036;-77
2022/01/13 04:12:08;;;;;;;11.65;6.63;;;;;;;;;;5045281;28;20405;-78
2022/01/13 04:17:08;;;;;;;8.50;4.78;;;;;;;;;;5051568;28;20416;-78
2022/01/13 04:19:34;;;;;;;8.75;4.35;;;;;;;;;;5045266;28;20044;-77
2022/01/13 04:22:00;;;;;;;12.40;4.75;;;;;;;;;;5050365;28;20033;-77
2022/01/13 04:24:26;;;;;;;22.88;8.70;;;;;;;;;;5045009;28;20032;-77
2022/01/13 04:26:54;;;;;;;17.65;7.63;;;;;;;;;;5049640;28;20131;-78
2022/01/13 04:29:29;;;;;;;16.27;7.47;;;;;;;;;;5043411;28;21655;-78
2022/01/13 04:31:55;;;;;;;11.57;6.28;;;;;;;;;;5051219;28;20081;-78
2022/01/13 04:34:21;;;;;;;11.95;4.93;;;;;;;;;;5047370;28;20025;-77
2022/01/13 04:36:48;;;;;;;22.17;6.65;;;;;;;;;;5045827;28;20063;-78
2022/01/13 04:39:15;;;;;;;10.23;5.28;;;;;;;;;;5037275;28;20087;-77
2022/01/13 04:41:44;;;;;;;8.68;4.65;;;;;;;;;;5036585;28;20701;-78
2022/01/13 04:44:11;;;;;;;16.70;8.20;;;;;;;;;;5043369;28;20392;-78
2022/01/13 04:46:37;;;;;;;10.40;6.03;;;;;;;;;;5048882;28;20064;-78
2022/01/13 04:49:04;;;;;;;15.45;7.13;;;;;;;;;;5046043;28;20029;-77
2022/01/13 04:51:30;;;;;;;14.98;6.43;;;;;;;;;;5047761;28;20378;-77
2022/01/13 04:53:56;;;;;;;15.18;6.28;;;;;;;;;;5047981;28;20041;-77
2022/01/13 04:56:44;;;;;;;13.82;6.18;;;;;;;;;;5052294;28;20047;-77
2022/01/13 04:59:11;;;;;;;10.30;5.53;;;;;;;;;;5048535;28;20055;-77
2022/01/13 05:01:38;;;;;;;7.35;5.18;;;;;;;;;;5050611;28;20884;-76
2022/01/13 05:04:05;;;;;;;10.55;4.43;;;;;;;;;;5041060;28;20119;-77
2022/01/13 05:06:31;;;;;;;20.77;8.63;;;;;;;;;;5043850;28;20036;-77
2022/01/13 05:08:57;;;;;;;18.85;8.18;;;;;;;;;;5036794;28;20030;-77
2022/01/13 05:11:23;;;;;;;13.32;6.50;;;;;;;;;;5043672;28;20035;-76
2022/01/13 05:13:49;;;;;;;18.83;6.75;;;;;;;;;;5042328;28;20508;-77
2022/01/13 05:16:22;;;;;;;12.75;6.07;;;;;;;;;;5045001;28;20052;-77
2022/01/13 05:21:44;;;;;;;11.50;5.80;;;;;;;;;;5043199;28;20085;-76
2022/01/13 05:24:04;;;;;;;15.98;6.82;;;;;;;;;;5034508;28;20036;-76
2022/01/13 05:26:30;;;;;;;18.70;8.80;;;;;;;;;;5044053;28;20041;-76
2022/01/13 05:28:56;;;;;;;26.92;8.93;;;;;;;;;;5040728;28;20035;-77
2022/01/13 05:31:22;;;;;;;24.52;11.02;;;;;;;;;;5036160;28;20055;-77
2022/01/13 05:33:48;;;;;;;23.75;11.57;;;;;;;;;;5034233;28;20020;-77
2022/01/13 05:36:14;;;;;;;18.80;8.98;;;;;;;;;;5041894;28;20089;-76
2022/01/13 05:38:42;;;;;;;17.85;8.25;;;;;;;;;;5036931;28;20067;-77
2022/01/13 05:41:08;;;;;;;29.73;12.80;;;;;;;;;;5040384;28;20036;-77
2022/01/13 05:43:35;;;;;;;31.83;14.85;;;;;;;;;;5038601;28;20734;-77
2022/01/13 05:46:01;;;;;;;28.50;13.25;;;;;;;;;;5041979;28;20668;-78
2022/01/13 05:48:27;;;;;;;23.77;11.88;;;;;;;;;;5040130;28;20017;-84
2022/01/13 05:50:53;;;;;;;27.40;11.05;;;;;;;;;;5040473;28;20029;-77
2022/01/13 05:53:19;;;;;;;20.23;7.63;;;;;;;;;;5037303;28;20143;-76
2022/01/13 05:55:45;;;;;;;10.70;6.65;;;;;;;;;;5042268;28;20078;-77
2022/01/13 05:58:11;;;;;;;16.48;5.75;;;;;;;;;;5041390;28;20013;-76
2022/01/13 06:00:38;;;;;;;8.27;6.45;;;;;;;;;;5039781;28;20051;-77
2022/01/13 06:03:04;;;;;;;15.77;7.53;;;;;;;;;;5043940;28;20091;-76
2022/01/13 06:05:31;;;;;;;16.20;6.88;;;;;;;;;;5044961;28;20554;-76
2022/01/13 06:07:57;;;;;;;27.42;9.07;;;;;;;;;;5044890;28;20028;-76
2022/01/13 06:10:23;;;;;;;28.45;10.00;;;;;;;;;;5046880;28;20378;-77
2022/01/13 06:12:50;;;;;;;17.88;10.27;;;;;;;;;;5043144;28;20025;-77
2022/01/13 06:15:20;;;;;;;21.65;9.35;;;;;;;;;;5044161;28;20106;-78
2022/01/13 06:17:47;;;;;;;18.63;6.93;;;;;;;;;;5040210;28;20028;-76
2022/01/13 06:20:13;;;;;;;16.85;6.78;;;;;;;;;;5038335;28;20093;-77
2022/01/13 06:22:40;;;;;;;21.77;9.10;;;;;;;;;;5044750;28;20040;-80
2022/01/13 06:25:09;;;;;;;13.93;7.70;;;;;;;;;;5043178;28;20039;-77
2022/01/13 06:27:35;;;;;;;12.68;7.05;;;;;;;;;;5060577;28;20028;-76
2022/01/13 06:30:01;;;;;;;23.67;13.15;;;;;;;;;;5045413;28;20029;-76
2022/01/13 06:32:27;;;;;;;22.35;10.95;;;;;;;;;;5039787;28;20040;-76
2022/01/13 06:34:53;;;;;;;24.25;10.80;;;;;;;;;;5042343;28;20029;-77
2022/01/13 06:37:20;;;;;;;26.30;11.60;;;;;;;;;;5045423;28;20024;-76
2022/01/13 06:39:46;;;;;;;38.90;11.93;;;;;;;;;;5047858;28;20044;-77
2022/01/13 06:42:12;;;;;;;24.85;9.15;;;;;;;;;;5049401;28;20041;-78
2022/01/13 06:44:39;;;;;;;15.93;6.72;;;;;;;;;;5049852;28;20033;-78
2022/01/13 06:47:05;;;;;;;15.82;8.82;;;;;;;;;;5048176;28;20044;-78
2022/01/13 06:49:31;;;;;;;18.48;8.55;;;;;;;;;;5048533;28;20048;-78
2022/01/13 06:51:58;;;;;;;16.58;8.05;;;;;;;;;;5046166;28;20051;-76
2022/01/13 06:54:24;;;;;;;17.85;7.35;;;;;;;;;;5048629;28;20016;-78
2022/01/13 06:56:50;;;;;;;12.18;6.43;;;;;;;;;;5046114;28;20127;-78
2022/01/13 06:59:16;;;;;;;16.15;7.50;;;;;;;;;;5047826;28;20863;-78
2022/01/13 07:01:43;;;;;;;17.02;8.43;;;;;;;;;;5049353;28;20033;-76
2022/01/13 07:04:10;;;;;;;17.70;7.13;;;;;;;;;;5045195;28;20036;-77
2022/01/13 07:06:36;;;;;;;21.33;7.55;;;;;;;;;;5045443;28;20130;-77
2022/01/13 07:09:05;;;;;;;18.33;7.93;;;;;;;;;;5042520;28;20164;-76
2022/01/13 07:11:31;;;;;;;22.50;9.38;;;;;;;;;;5044021;28;20033;-76
2022/01/13 07:13:57;;;;;;;16.95;7.43;;;;;;;;;;5046160;28;20223;-76
2022/01/13 07:16:23;;;;;;;19.65;8.13;;;;;;;;;;5050335;28;20052;-76
2022/01/13 07:18:49;;;;;;;16.27;9.13;;;;;;;;;;5046807;28;20132;-76
2022/01/13 07:21:16;;;;;;;16.30;7.43;;;;;;;;;;5047584;28;20044;-76
2022/01/13 07:23:42;;;;;;;15.02;7.47;;;;;;;;;;5044538;28;20043;-76
2022/01/13 07:26:09;;;;;;;11.32;6.15;;;;;;;;;;5047755;28;20040;-77
2022/01/13 07:28:35;;;;;;;14.85;8.05;;;;;;;;;;5044806;28;20032;-77
2022/01/13 07:31:01;;;;;;;13.82;6.18;;;;;;;;;;5048770;28;20031;-76
2022/01/13 07:33:28;;;;;;;8.98;5.47;;;;;;;;;;5044078;28;20025;-77
2022/01/13 07:35:54;;;;;;;10.10;5.45;;;;;;;;;;5045780;28;20048;-76
2022/01/13 07:38:20;;;;;;;10.18;6.15;;;;;;;;;;5041479;28;20029;-76
2022/01/13 07:40:46;;;;;;;9.90;5.25;;;;;;;;;;5045843;28;20043;-76
2022/01/13 07:43:12;;;;;;;16.40;6.05;;;;;;;;;;5047202;28;20104;-77
2022/01/13 07:45:38;;;;;;;8.80;5.03;;;;;;;;;;5044787;28;20040;-77
2022/01/13 07:48:05;;;;;;;7.18;4.72;;;;;;;;;;5045673;28;20037;-77
2022/01/13 07:50:31;;;;;;;10.05;5.43;;;;;;;;;;5045493;28;20185;-77
2022/01/13 07:52:57;;;;;;;9.85;4.00;;;;;;;;;;5041093;28;20099;-76
2022/01/13 07:55:23;;;;;;;8.15;4.85;;;;;;;;;;5045214;28;20032;-77
2022/01/13 07:57:49;;;;;;;10.93;5.15;;;;;;;;;;5043664;28;20035;-76
2022/01/13 08:00:15;;;;;;;4.97;3.53;;;;;;;;;;5040274;28;20045;-76
2022/01/13 08:02:41;;;;;;;10.32;5.97;;;;;;;;;;5047344;28;20029;-77
2022/01/13 08:05:08;;;;;;;9.55;5.05;;;;;;;;;;5045938;28;20091;-76
2022/01/13 08:07:33;;;;;;;10.55;5.20;;;;;;;;;;5044718;28;20025;-76
2022/01/13 08:09:59;;;;;;;10.00;4.55;;;;;;;;;;5036735;28;20095;-76
2022/01/13 08:12:26;;;;;;;11.35;5.20;;;;;;;;;;5043812;28;20226;-76
2022/01/13 08:14:52;;;;;;;15.02;5.63;;;;;;;;;;5044331;28;20028;-76
2022/01/13 08:20:03;;;;;;;10.40;6.00;;;;;;;;;;5038556;28;20109;-76
2022/01/13 08:22:29;;;;;;;11.20;6.18;;;;;;;;;;5041302;28;20119;-77
2022/01/13 08:24:55;;;;;;;14.63;5.38;;;;;;;;;;5036279;28;20048;-77
2022/01/13 08:27:21;;;;;;;20.13;7.20;;;;;;;;;;5035416;28;20035;-76
2022/01/13 08:29:47;;;;;;;15.93;6.55;;;;;;;;;;5039826;28;20033;-77
2022/01/13 08:32:13;;;;;;;17.38;7.95;;;;;;;;;;5044860;28;21489;-76
2022/01/13 08:34:39;;;;;;;13.15;7.20;;;;;;;;;;5043956;28;20144;-76
2022/01/13 08:37:05;;;;;;;13.07;7.43;;;;;;;;;;5040988;28;20028;-77
2022/01/13 08:39:38;;;;;;;10.27;5.20;;;;;;;;;;5039131;28;22590;-77
2022/01/13 08:42:04;;;;;;;17.13;6.93;;;;;;;;;;5043868;28;20116;-77
2022/01/13 08:44:30;;;;;;;14.55;6.20;;;;;;;;;;5044922;28;20728;-77
2022/01/13 08:46:56;;;;;;;16.95;9.02;;;;;;;;;;5045106;28;20037;-77
2022/01/13 08:49:22;;;;;;;11.57;7.85;;;;;;;;;;5043802;28;20499;-76
2022/01/13 08:51:48;;;;;;;20.77;11.43;;;;;;;;;;5042790;28;20091;-77
2022/01/13 08:54:13;;;;;;;25.08;9.90;;;;;;;;;;5045691;28;20016;-77
2022/01/13 08:56:40;;;;;;;22.13;11.02;;;;;;;;;;5046846;28;20060;-76
2022/01/13 08:59:06;;;;;;;29.73;14.27;;;;;;;;;;5043765;28;20111;-77
2022/01/13 09:01:32;;;;;;;36.08;15.20;;;;;;;;;;5046407;28;20020;-76
2022/01/13 09:03:59;;;;;;;40.47;18.25;;;;;;;;;;5052219;28;20025;-76
2022/01/13 09:06:25;;;;;;;44.88;13.38;;;;;;;;;;5063763;28;20116;-76
2022/01/13 09:08:51;;;;;;;42.25;17.75;;;;;;;;;;5054901;28;20032;-77
2022/01/13 09:11:17;;;;;;;33.13;14.18;;;;;;;;;;5049036;28;20021;-76
2022/01/13 09:13:43;;;;;;;29.38;11.25;;;;;;;;;;5047372;28;20029;-77
2022/01/13 09:16:17;;;;;;;15.20;6.05;;;;;;;;;;5046918;28;20040;-77
2022/01/13 09:21:22;;;;;;;13.00;5.80;;;;;;;;;;5041269;28;20053;-76
2022/01/13 09:23:48;;;;;;;11.68;6.13;;;;;;;;;;5037419;28;20116;-76
2022/01/13 09:26:14;;;;;;;12.50;5.68;;;;;;;;;;5042062;28;20032;-76
2022/01/13 09:28:40;;;;;;;9.07;5.50;;;;;;;;;;5040744;28;20024;-77
2022/01/13 09:31:07;;;;;;;12.30;6.05;;;;;;;;;;5046759;28;20790;-77
2022/01/13 09:33:33;;;;;;;18.75;7.88;;;;;;;;;;5058556;28;20033;-77
2022/01/13 09:36:00;;;;;;;13.95;6.63;;;;;;;;;;5057210;28;20111;-76
2022/01/13 09:38:26;;;;;;;13.20;6.28;;;;;;;;;;5044249;28;20059;-77
2022/01/13 09:40:53;;;;;;;8.98;5.75;;;;;;;;;;5049447;28;20045;-77
2022/01/13 09:43:23;;;;;;;13.02;7.05;;;;;;;;;;5047030;28;20064;-77
2022/01/13 09:45:49;;;;;;;18.73;7.05;;;;;;;;;;5047884;28;20032;-77
2022/01/13 09:48:15;;;;;;;16.25;6.80;;;;;;;;;;5050034;28;20028;-76
2022/01/13 09:50:43;;;;;;;14.60;7.22;;;;;;;;;;5060790;28;20036;-77
2022/01/13 09:53:09;;;;;;;14.20;6.95;;;;;;;;;;5039288;28;20807;-76
2022/01/13 09:55:35;;;;;;;16.52;6.82;;;;;;;;;;5047328;28;20037;-77
2022/01/13 09:58:05;;;;;;;16.73;7.80;;;;;;;;;;5046362;28;20112;-77
2022/01/13 10:00:31;;;;;;;15.82;6.88;;;;;;;;;;5044536;28;20053;-77
2022/01/13 10:02:58;;;;;;;15.05;7.13;;;;;;;;;;5045069;28;20024;-77
2022/01/13 10:05:24;;;;;;;15.93;7.07;;;;;;;;;;5045967;28;20040;-77
2022/01/13 10:07:52;;;;;;;14.43;7.15;;;;;;;;;;5039118;28;20040;-77
2022/01/13 10:10:19;;;;;;;13.50;7.43;;;;;;;;;;5044649;28;20101;-79
2022/01/13 10:12:46;;;;;;;12.93;6.10;;;;;;;;;;5058340;28;20035;-78
2022/01/13 10:17:49;;;;;;;13.82;6.78;;;;;;;;;;5054275;28;20294;-78
2022/01/13 10:20:16;;;;;;;17.45;6.78;;;;;;;;;;5057372;28;20040;-77
2022/01/13 10:22:42;;;;;;;15.68;7.00;;;;;;;;;;5056522;28;20059;-79
2022/01/13 10:25:08;;;;;;;17.75;8.07;;;;;;;;;;5058817;28;20036;-77
2022/01/13 10:27:35;;;;;;;17.08;7.72;;;;;;;;;;5057746;28;20024;-79
2022/01/13 10:30:05;;;;;;;18.73;7.65;;;;;;;;;;5047594;28;22153;-79
2022/01/13 10:32:41;;;;;;;14.00;8.07;;;;;;;;;;5056934;28;20044;-79
2022/01/13 10:35:11;;;;;;;13.55;7.82;;;;;;;;;;5074301;28;20450;-80
2022/01/13 10:37:38;;;;;;;19.70;9.20;;;;;;;;;;5061267;28;20113;-79
2022/01/13 10:40:12;;;;;;;22.05;8.30;;;;;;;;;;5057371;28;20045;-79
2022/01/13 10:45:09;;;;;;;17.70;8.68;;;;;;;;;;5055065;28;20029;-79
2022/01/13 10:47:35;;;;;;;14.50;7.40;;;;;;;;;;5060699;28;20029;-79
2022/01/13 10:50:08;;;;;;;22.27;10.05;;;;;;;;;;5072723;28;20031;-79
2022/01/13 10:52:34;;;;;;;;;;;;;;;;;;5075211;28;22683;-79
2022/01/13 10:55:03;;;;;;;15.48;7.30;;;;;;;;;;5058330;28;19966;-79
2022/01/13 10:57:29;;;;;;;19.13;8.68;;;;;;;;;;5059134;28;20484;-78
2022/01/13 10:59:55;;;;;;;18.20;8.13;;;;;;;;;;5056528;28;20055;-78
2022/01/13 11:02:22;;;;;;;25.83;9.73;;;;;;;;;;5055477;28;20096;-78
2022/01/13 11:04:48;;;;;;;16.73;7.82;;;;;;;;;;5057378;28;20038;-79
2022/01/13 11:07:14;;;;;;;16.65;7.20;;;;;;;;;;5057021;28;21354;-79
2022/01/13 11:09:43;;;;;;;10.13;5.68;;;;;;;;;;5057236;28;20987;-79
2022/01/13 11:12:13;;;;;;;12.68;6.60;;;;;;;;;;5047761;28;20033;-79
2022/01/13 11:14:43;;;;;;;16.17;7.95;;;;;;;;;;5054946;28;20049;-79
2022/01/13 11:17:10;;;;;;;19.52;7.03;;;;;;;;;;5049811;28;20035;-79
2022/01/13 11:19:40;;;;;;;19.02;8.07;;;;;;;;;;5044251;28;20757;-78
2022/01/13 11:22:06;;;;;;;11.18;7.25;;;;;;;;;;5050811;28;20137;-78
2022/01/13 11:24:32;;;;;;;21.08;9.18;;;;;;;;;;5053995;28;20028;-78
2022/01/13 11:26:59;;;;;;;12.63;7.68;;;;;;;;;;5049939;28;20415;-78
2022/01/13 11:29:25;;;;;;;13.60;6.63;;;;;;;;;;5052016;28;20032;-78
2022/01/13 11:31:51;;;;;;;13.05;6.88;;;;;;;;;;5050124;28;22010;-78
2022/01/13 11:34:18;;;;;;;21.35;8.80;;;;;;;;;;5053484;28;20054;-78
2022/01/13 11:36:44;;;;;;;13.95;7.45;;;;;;;;;;5052145;28;20024;-78
2022/01/13 11:39:10;;;;;;;16.00;7.68;;;;;;;;;;5048819;28;20159;-78
2022/01/13 11:41:56;;;;;;;14.95;6.95;;;;;;;;;;5052527;28;20092;-78
2022/01/13 11:44:23;;;;;;;12.65;5.95;;;;;;;;;;5039828;28;20045;-78
2022/01/13 11:46:50;;;;;;;16.55;7.40;;;;;;;;;;5051757;28;20043;-78
2022/01/13 11:49:20;;;;;;;11.30;6.07;;;;;;;;;;5050062;28;20039;-78
2022/01/13 11:52:28;;;;;;;13.32;7.55;;;;;;;;;;5053552;28;20097;-78
2022/01/13 11:54:54;;;;;;;18.27;8.38;;;;;;;;;;5071093;28;20530;-79
2022/01/13 11:57:22;;;;;;;20.75;7.50;;;;;;;;;;5071278;28;20024;-79
2022/01/13 12:00:08;;;;;;;10.73;5.15;;;;;;;;;;5064102;28;20076;-79
2022/01/13 12:02:39;;;;;;;17.05;6.57;;;;;;;;;;5065548;28;20068;-78
2022/01/13 12:05:05;;;;;;;14.45;6.57;;;;;;;;;;5071096;28;20052;-79
2022/01/13 12:07:43;;;;;;;12.38;5.43;;;;;;;;;;5068914;28;20024;-79
2022/01/13 12:10:10;;;;;;;11.23;5.93;;;4.20;99.90;;;;;;5060323;28;20115;-79
2022/01/13 12:12:37;;;;;;;12.75;6.88;;;;;;;;;;5066438;28;20029;-78
2022/01/13 12:15:26;;;;;;;14.02;6.07;;;;;;;;;;5067271;28;20524;-79
2022/01/13 12:18:00;;;;;;;18.20;7.85;;;;;;;;;;5048604;28;20037;-79
2022/01/13 12:23:32;;;;;;;14.05;6.05;;;;;;;;;;5070320;28;20037;-79
2022/01/13 12:25:59;;;;;;;11.48;5.72;;;;;;;;;;5074266;28;20147;-78
2022/01/13 12:28:27;;;;;;;12.50;5.22;;;;;;;;;;5069255;28;20020;-78
2022/01/13 12:30:53;;;;;;;10.25;4.45;;;;;;;;;;5071338;28;20063;-78
2022/01/13 12:33:45;;;;;;;14.30;5.93;;;;;;;;;;5055823;28;20063;-78
2022/01/13 12:36:22;;;;;;;16.13;7.80;;;;;;;;;;5052479;28;20531;-78
2022/01/13 12:38:58;;;;;;;14.15;6.20;;;;;;;;;;5052743;28;20120;-79
2022/01/13 12:41:26;;;;;;;11.63;5.53;;;;;;;;;;5051152;28;20044;-79
2022/01/13 12:44:12;;;;;;;10.68;5.78;;;;;;;;;;5049385;28;20025;-78
2022/01/13 12:46:39;;;;;;;10.48;4.97;;;;;;;;;;5043524;28;20090;-77
2022/01/13 12:49:07;;;;;;;12.45;5.93;;;;;;;;;;5044215;28;20093;-79
2022/01/13 12:51:33;;;;;;;13.55;6.10;;;;;;;;;;5050695;28;20542;-79
2022/01/13 12:54:00;;;;;;;14.50;6.10;;;;;;;;;;5049064;28;20049;-79
2022/01/13 12:56:27;;;;;;;12.68;5.45;;;;;;;;;;5050634;28;20025;-79
2022/01/13 12:58:55;;;;;;;13.38;4.82;;;;;;;;;;5045945;28;20397;-80
2022/01/13 13:01:25;;;;;;;15.50;6.40;;;;;;;;;;5051972;28;20066;-79
2022/01/13 13:04:02;;;;;;;16.27;6.40;;;;;;;;;;5051090;28;20595;-78
2022/01/13 13:06:28;;;;;;;13.57;6.88;;;;;;;;;;5052078;28;20145;-79
2022/01/13 13:09:02;;;;;;;12.02;5.30;;;;;;;;;;5052924;28;20120;-79
2022/01/13 13:11:31;;;;;;;11.18;5.82;;;;;;;;;;5048485;28;20040;-79
2022/01/13 13:13:58;;;;;;;11.50;4.95;;;;;;;;;;5048437;28;20390;-79
2022/01/13 13:16:24;;;;;;;11.77;4.93;;;;;;;;;;5049587;28;20063;-79
2022/01/13 13:18:53;;;;;;;12.50;5.78;;;;;;;;;;5054990;28;20025;-80
2022/01/13 13:21:19;;;;;;;14.27;4.00;;;;;;;;;;5055207;28;20179;-79
2022/01/13 13:23:46;;;;;;;13.32;5.35;;;;;;;;;;5046015;28;20021;-78
2022/01/13 13:26:18;;;;;;;8.45;4.80;;;;;;;;;;5046026;28;20032;-79
2022/01/13 13:28:45;;;;;;;9.38;4.88;;;;;;;;;;5049555;28;20037;-79
2022/01/13 13:31:16;;;;;;;9.38;4.63;;;;;;;;;;5050201;28;20036;-78
2022/01/13 13:33:45;;;;;;;13.48;5.07;;;;;;;;;;5048469;28;20044;-78
2022/01/13 13:36:13;;;;;;;9.43;4.57;;;;;;;;;;5050161;28;20029;-78
2022/01/13 13:38:46;;;;;;;14.05;4.47;;;;;;;;;;5054633;28;20036;-79
2022/01/13 13:41:12;;;;;;;14.27;4.82;;;;;;;;;;5049081;28;20040;-79
2022/01/13 13:43:38;;;;;;;10.10;3.90;;;;;;;;;;5046826;28;20044;-79
2022/01/13 13:46:04;;;;;;;8.38;3.50;;;;;;;;;;5041298;28;20025;-79
2022/01/13 13:48:31;;;;;;;10.75;4.70;;;;;;;;;;5051139;28;20024;-78
2022/01/13 13:50:57;;;;;;;7.38;3.60;;;;;;;;;;5050783;28;20132;-79
2022/01/13 13:53:23;;;;;;;10.40;4.25;;;;;;;;;;5047912;28;20013;-79
2022/01/13 13:55:57;;;;;;;10.75;4.18;;;;;;;;;;5049123;28;20043;-78
2022/01/13 13:58:23;;;;;;;9.35;4.05;;;;;;;;;;5052653;28;20055;-79
2022/01/13 14:00:56;;;;;;;9.18;3.80;;;;;;;;;;5048746;28;20358;-79
2022/01/13 14:03:35;;;;;;;11.85;4.30;;;;;;;;;;5053098;28;20048;-79
2022/01/13 14:06:01;;;;;;;10.55;4.35;;;;;;;;;;5068202;28;20025;-79
2022/01/13 14:08:29;;;;;;;10.95;4.85;;;;;;;;;;5070555;28;20404;-79
2022/01/13 14:11:11;;;;;;;11.52;5.10;;;;;;;;;;5067184;28;20040;-79
2022/01/13 14:13:37;;;;;;;9.80;4.22;;;;;;;;;;5062302;28;20060;-78
2022/01/13 14:16:05;;;;;;;8.65;4.25;;;;;;;;;;5062974;28;20029;-79
2022/01/13 14:18:32;;;;;;;9.20;3.90;;;;;;;;;;5075491;28;20036;-79
2022/01/13 14:21:00;;;;;;;12.30;5.07;;;;;;;;;;5070041;28;20428;-79
2022/01/13 14:23:28;;;;;;;10.30;5.47;;;4.30;99.90;;;;;;5064594;28;20039;-79
2022/01/13 14:26:11;;;;;;;12.30;4.93;;;;;;;;;;5071070;28;20513;-78
2022/01/13 14:28:38;;;;;;;9.60;3.35;;;;;;;;;;5056481;28;20119;-78
2022/01/13 14:31:04;;;;;;;10.98;3.78;;;;;;;;;;5063433;28;20040;-78
2022/01/13 14:33:37;;;;;;;9.35;3.70;;;;;;;;;;5065305;28;20025;-79
2022/01/13 14:36:11;;;;;;;11.68;4.97;;;;;;;;;;5070382;28;20028;-79
2022/01/13 14:38:45;;;;;;;9.55;4.45;;;;;;;;;;5072618;28;20028;-78
2022/01/13 14:41:12;;;;;;;9.75;4.25;;;;;;;;;;5069574;28;20040;-78
2022/01/13 14:43:38;;;;;;;10.27;4.45;;;;;;;;;;5059291;28;20391;-79
2022/01/13 14:46:04;;;;;;;8.57;4.10;;;;;;;;;;5062217;28;20025;-78
2022/01/13 14:48:30;;;;;;;7.40;3.40;;;;;;;;;;5069431;28;20029;-79
2022/01/13 14:51:10;;;;;;;9.90;4.10;;;;;;;;;;5060943;28;20251;-78
2022/01/13 14:53:36;;;;;;;8.35;4.85;;;;;;;;;;5082040;28;20024;-78
2022/01/13 14:56:06;;;;;;;11.93;4.85;;;;;;;;;;5068354;28;20025;-78
2022/01/13 14:58:33;;;;;;;8.05;4.68;;;;;;;;;;5064570;28;20027;-78
2022/01/13 15:00:59;;;;;;;10.95;4.55;;;;;;;;;;5071019;28;20036;-79
2022/01/13 15:03:26;;;;;;;9.40;5.07;;;;;;;;;;5073399;28;20431;-79
2022/01/13 15:05:52;;;;;;;10.30;3.88;;;;;;;;;;5068610;28;20029;-78
2022/01/13 15:08:18;;;;;;;10.38;5.03;;;;;;;;;;5066716;28;20028;-81
2022/01/13 15:10:44;;;;;;;9.20;4.13;;;;;;;;;;5064416;28;20120;-79
2022/01/13 15:13:10;;;;;;;11.05;4.13;;;;;;;;;;5076540;28;20035;-79
2022/01/13 15:15:36;;;;;;;9.75;4.30;;;;;;;;;;5060553;28;20028;-78